createdAt,value
2018-12-08T00:00:29.064Z,3.75
2018-12-08T00:02:56.547Z,4.20
2018-12-08T00:05:24.036Z,4.40
2018-12-08T00:07:51.466Z,4.47
2018-12-08T00:10:18.906Z,5.10
2018-12-08T00:12:46.343Z,4.78
2018-12-08T00:15:13.783Z,4.10
2018-12-08T00:17:41.235Z,4.53
2018-12-08T00:20:08.680Z,4.50
2018-12-08T00:22:36.122Z,4.78
2018-12-08T00:25:04.046Z,4.87
2018-12-08T00:27:31.488Z,4.35
2018-12-08T00:29:58.913Z,4.22
2018-12-08T00:32:26.358Z,4.58
2018-12-08T00:34:53.810Z,3.80
2018-12-08T00:37:21.246Z,4.42
2018-12-08T00:39:48.670Z,4.50
2018-12-08T00:42:16.114Z,3.25
2018-12-08T00:44:43.630Z,3.65
2018-12-08T00:47:11.066Z,4.08
2018-12-08T00:49:38.522Z,3.85
2018-12-08T00:52:05.958Z,3.15
2018-12-08T00:54:33.394Z,3.87
2018-12-08T00:57:00.835Z,3.87
2018-12-08T00:59:28.283Z,4.08
2018-12-08T01:01:55.926Z,4.25
2018-12-08T01:04:23.371Z,4.00
2018-12-08T01:06:50.816Z,3.55
2018-12-08T01:09:18.247Z,3.70
2018-12-08T01:11:45.708Z,4.00
2018-12-08T01:14:13.130Z,4.10
2018-12-08T01:16:40.576Z,3.83
2018-12-08T01:19:07.998Z,3.42
2018-12-08T01:21:35.448Z,3.70
2018-12-08T01:24:02.888Z,4.00
2018-12-08T01:26:30.340Z,3.95
2018-12-08T01:28:57.799Z,4.25
2018-12-08T01:31:25.314Z,3.30
2018-12-08T01:33:52.886Z,4.20
2018-12-08T01:36:20.330Z,4.15
2018-12-08T01:38:47.761Z,3.83
2018-12-08T01:41:15.202Z,3.90
2018-12-08T01:43:42.664Z,4.33
2018-12-08T01:46:10.186Z,4.10
2018-12-08T01:48:37.618Z,4.30
2018-12-08T01:51:05.062Z,3.70
2018-12-08T01:53:32.506Z,3.62
2018-12-08T01:55:59.943Z,4.80
2018-12-08T01:58:27.403Z,5.20
2018-12-08T02:00:54.839Z,4.40
2018-12-08T02:03:22.274Z,4.50
2018-12-08T02:05:49.718Z,3.40
2018-12-08T02:08:17.164Z,3.58
2018-12-08T02:10:44.613Z,4.45
2018-12-08T02:13:12.244Z,3.90
2018-12-08T02:15:39.677Z,3.08
2018-12-08T02:18:07.106Z,3.60
2018-12-08T02:20:34.558Z,4.30
2018-12-08T02:23:02.007Z,4.37
2018-12-08T02:25:29.462Z,4.12
2018-12-08T02:27:56.914Z,4.60
2018-12-08T02:30:24.447Z,3.40
2018-12-08T02:32:51.980Z,4.20
2018-12-08T02:35:19.428Z,4.30
2018-12-08T02:37:46.862Z,3.77
2018-12-08T02:40:14.326Z,3.98
2018-12-08T02:42:41.844Z,3.77
2018-12-08T02:45:09.280Z,3.50
2018-12-08T02:47:36.717Z,4.10
2018-12-08T02:50:05.544Z,3.58
2018-12-08T02:52:32.973Z,3.50
2018-12-08T02:55:00.430Z,3.58
2018-12-08T02:57:27.869Z,3.60
2018-12-08T02:59:55.307Z,3.47
2018-12-08T03:02:22.762Z,3.30
2018-12-08T03:04:50.215Z,3.15
2018-12-08T03:07:17.662Z,2.87
2018-12-08T03:09:45.118Z,3.20
2018-12-08T03:12:12.703Z,3.47
2018-12-08T03:14:40.105Z,3.55
2018-12-08T03:17:07.542Z,3.33
2018-12-08T03:19:34.970Z,3.80
2018-12-08T03:22:02.394Z,3.67
2018-12-08T03:24:29.827Z,3.40
2018-12-08T03:26:57.258Z,3.90
2018-12-08T03:29:24.698Z,3.70
2018-12-08T03:31:52.150Z,4.10
2018-12-08T03:34:19.685Z,4.35
2018-12-08T03:36:47.206Z,4.40
2018-12-08T03:39:14.647Z,3.40
2018-12-08T03:41:42.086Z,3.50
2018-12-08T03:44:09.513Z,3.40
2018-12-08T03:46:36.956Z,3.40
2018-12-08T03:49:04.428Z,3.27
2018-12-08T03:51:31.921Z,3.90
2018-12-08T03:53:59.342Z,3.70
2018-12-08T03:56:26.775Z,3.50
2018-12-08T03:58:54.282Z,3.25
2018-12-08T04:01:21.723Z,3.42
2018-12-08T04:03:49.167Z,2.87
2018-12-08T04:06:16.630Z,3.35
2018-12-08T04:08:44.148Z,3.50
2018-12-08T04:11:11.666Z,3.25
2018-12-08T04:13:39.102Z,3.98
2018-12-08T04:16:06.552Z,3.67
2018-12-08T04:18:33.997Z,4.00
2018-12-08T04:21:01.515Z,4.72
2018-12-08T04:23:28.946Z,4.67
2018-12-08T04:25:56.418Z,4.97
2018-12-08T04:28:23.850Z,4.03
2018-12-08T04:30:51.300Z,4.08
2018-12-08T04:33:18.746Z,4.62
2018-12-08T04:35:46.190Z,4.75
2018-12-08T04:38:13.627Z,4.50
2018-12-08T04:40:41.059Z,4.50
2018-12-08T04:43:08.567Z,4.87
2018-12-08T04:45:36.023Z,4.37
2018-12-08T04:48:03.453Z,4.83
2018-12-08T04:50:30.878Z,4.35
2018-12-08T04:52:58.319Z,4.08
2018-12-08T04:55:25.766Z,5.00
2018-12-08T04:57:53.287Z,4.60
2018-12-08T05:00:20.727Z,4.60
2018-12-08T05:02:48.162Z,4.67
2018-12-08T05:05:15.700Z,4.27
2018-12-08T05:07:43.132Z,4.40
2018-12-08T05:10:10.558Z,4.47
2018-12-08T05:12:38.003Z,4.95
2018-12-08T05:15:05.719Z,4.42
2018-12-08T05:17:33.153Z,4.97
2018-12-08T05:20:00.578Z,5.62
2018-12-08T05:22:28.014Z,5.70
2018-12-08T05:24:55.478Z,5.62
2018-12-08T05:27:23.006Z,5.20
2018-12-08T05:29:50.447Z,5.30
2018-12-08T05:32:17.900Z,5.20
2018-12-08T05:34:45.335Z,5.50
2018-12-08T05:37:12.779Z,6.10
2018-12-08T05:39:40.217Z,5.20
2018-12-08T05:42:07.662Z,6.10
2018-12-08T05:44:35.086Z,5.75
2018-12-08T05:47:02.532Z,5.70
2018-12-08T05:49:29.966Z,5.80
2018-12-08T05:51:57.394Z,5.73
2018-12-08T05:54:24.822Z,5.97
2018-12-08T05:56:52.249Z,6.70
2018-12-08T05:59:19.686Z,6.95
2018-12-08T06:01:47.130Z,6.45
2018-12-08T06:04:14.574Z,6.90
2018-12-08T06:06:42.015Z,9.18
2018-12-08T06:09:09.454Z,7.90
2018-12-08T06:11:36.882Z,7.97
2018-12-08T06:14:04.323Z,8.03
2018-12-08T06:16:31.742Z,7.80
2018-12-08T06:18:59.186Z,8.45
2018-12-08T06:21:35.469Z,8.43
2018-12-08T06:24:02.916Z,8.13
2018-12-08T06:26:32.699Z,8.93
2018-12-08T06:29:00.128Z,8.98
2018-12-08T06:31:27.558Z,9.20
2018-12-08T06:33:55.001Z,9.95
2018-12-08T06:36:22.454Z,10.00
2018-12-08T06:38:49.892Z,10.85
2018-12-08T06:41:17.328Z,10.50
2018-12-08T06:43:44.766Z,10.40
2018-12-08T06:46:12.210Z,10.75
2018-12-08T06:48:39.643Z,10.00
2018-12-08T06:51:07.094Z,10.63
2018-12-08T06:53:34.527Z,10.60
2018-12-08T06:56:01.970Z,9.67
2018-12-08T06:58:29.394Z,9.60
2018-12-08T07:00:56.838Z,10.10
2018-12-08T07:03:24.270Z,9.68
2018-12-08T07:05:51.712Z,10.30
2018-12-08T07:08:19.156Z,10.30
2018-12-08T07:10:46.598Z,9.40
2018-12-08T07:13:14.027Z,9.30
2018-12-08T07:15:41.464Z,8.80
2018-12-08T07:18:08.907Z,9.10
2018-12-08T07:20:36.361Z,8.70
2018-12-08T07:23:03.819Z,9.93
2018-12-08T07:25:31.255Z,9.30
2018-12-08T07:27:58.712Z,9.13
2018-12-08T07:30:26.146Z,9.00
2018-12-08T07:32:53.585Z,9.30
2018-12-08T07:35:21.034Z,8.50
2018-12-08T07:37:48.483Z,8.60
2018-12-08T07:40:15.922Z,8.70
2018-12-08T07:42:43.362Z,8.45
2018-12-08T07:45:10.811Z,8.08
2018-12-08T07:47:38.242Z,7.30
2018-12-08T07:50:06.282Z,7.97
2018-12-08T07:52:33.710Z,8.05
2018-12-08T07:55:01.155Z,7.90
2018-12-08T07:57:28.586Z,7.40
2018-12-08T07:59:56.027Z,7.70
2018-12-08T08:02:23.455Z,9.05
2018-12-08T08:04:50.966Z,7.60
2018-12-08T08:07:18.411Z,8.95
2018-12-08T08:09:45.838Z,8.93
2018-12-08T08:12:13.274Z,8.40
2018-12-08T08:14:40.709Z,9.05
2018-12-08T08:17:08.143Z,9.10
2018-12-08T08:19:35.601Z,10.05
2018-12-08T08:22:03.046Z,9.05
2018-12-08T08:24:30.495Z,10.10
2018-12-08T08:26:57.945Z,9.93
2018-12-08T08:29:25.394Z,11.55
2018-12-08T08:31:52.823Z,10.35
2018-12-08T08:34:20.271Z,9.75
2018-12-08T08:36:47.714Z,9.28
2018-12-08T08:39:15.146Z,8.90
2018-12-08T08:41:42.582Z,8.30
2018-12-08T08:44:10.014Z,8.20
2018-12-08T08:46:37.546Z,7.90
2018-12-08T08:49:04.995Z,8.20
2018-12-08T08:51:32.446Z,7.65
2018-12-08T08:53:59.890Z,7.40
2018-12-08T08:56:27.319Z,6.87
2018-12-08T08:58:54.743Z,6.65
2018-12-08T09:01:22.187Z,7.37
2018-12-08T09:03:49.626Z,6.90
2018-12-08T09:06:17.053Z,6.90
2018-12-08T09:08:44.498Z,6.80
2018-12-08T09:11:11.942Z,7.53
2018-12-08T09:13:39.382Z,6.92
2018-12-08T09:16:06.853Z,6.40
2018-12-08T09:18:34.356Z,6.30
2018-12-08T09:21:01.782Z,6.33
2018-12-08T09:23:29.227Z,6.00
2018-12-08T09:25:56.688Z,6.17
2018-12-08T09:28:24.122Z,6.47
2018-12-08T09:30:51.547Z,6.50
2018-12-08T09:33:18.983Z,6.50
2018-12-08T09:35:46.418Z,5.85
2018-12-08T09:38:13.862Z,6.22
2018-12-08T09:40:41.298Z,5.45
2018-12-08T09:43:08.726Z,5.87
2018-12-08T09:45:41.803Z,6.22
2018-12-08T09:48:05.585Z,5.67
2018-12-08T09:50:33.027Z,5.20
2018-12-08T09:53:08.209Z,5.50
2018-12-08T09:55:35.636Z,5.70
2018-12-08T09:58:03.158Z,5.45
2018-12-08T10:00:30.612Z,5.62
2018-12-08T10:02:58.066Z,5.60
2018-12-08T10:05:25.509Z,5.72
2018-12-08T10:07:52.941Z,6.10
2018-12-08T10:10:20.467Z,5.95
2018-12-08T10:12:47.898Z,5.80
2018-12-08T10:15:15.322Z,5.03
2018-12-08T10:18:23.517Z,4.73
2018-12-08T10:20:50.939Z,5.40
2018-12-08T10:23:18.377Z,5.58
2018-12-08T10:25:45.802Z,5.12
2018-12-08T10:28:13.242Z,5.60
2018-12-08T10:30:40.670Z,5.78
2018-12-08T10:33:08.102Z,6.00
2018-12-08T10:35:35.552Z,5.30
2018-12-08T10:38:03.423Z,5.65
2018-12-08T10:40:30.861Z,5.70
2018-12-08T10:42:58.299Z,5.42
2018-12-08T10:45:25.750Z,5.12
2018-12-08T10:47:53.174Z,5.80
2018-12-08T10:50:20.610Z,5.37
2018-12-08T10:52:48.041Z,5.30
2018-12-08T10:55:15.478Z,5.40
2018-12-08T10:57:42.925Z,6.12
2018-12-08T11:00:12.302Z,6.12
2018-12-08T11:02:39.729Z,7.20
2018-12-08T11:05:07.194Z,6.20
2018-12-08T11:07:34.706Z,6.05
2018-12-08T11:10:02.163Z,5.37
2018-12-08T11:12:29.611Z,6.15
2018-12-08T11:15:00.644Z,5.70
2018-12-08T11:17:26.481Z,6.47
2018-12-08T11:19:53.910Z,6.33
2018-12-08T11:22:21.356Z,6.95
2018-12-08T11:24:48.814Z,6.80
2018-12-08T11:27:16.250Z,6.87
2018-12-08T11:29:43.685Z,6.00
2018-12-08T11:32:11.128Z,6.60
2018-12-08T11:34:38.572Z,6.42
2018-12-08T11:37:06.030Z,6.30
2018-12-08T11:39:33.482Z,6.10
2018-12-08T11:42:01.249Z,6.47
2018-12-08T11:44:28.819Z,5.60
2018-12-08T11:46:56.485Z,4.87
2018-12-08T11:49:23.944Z,4.80
2018-12-08T11:51:51.392Z,4.40
2018-12-08T11:54:18.813Z,3.70
2018-12-08T11:56:46.241Z,4.92
2018-12-08T11:59:13.685Z,4.28
2018-12-08T12:01:41.139Z,3.90
2018-12-08T12:04:08.574Z,4.40
2018-12-08T12:06:36.004Z,4.95
2018-12-08T12:09:05.139Z,4.00
2018-12-08T12:11:32.575Z,5.20
2018-12-08T12:14:00.002Z,5.50
2018-12-08T12:16:28.101Z,4.95
2018-12-08T12:18:55.769Z,5.50
2018-12-08T12:21:23.214Z,5.40
2018-12-08T12:23:50.649Z,5.40
2018-12-08T12:26:18.090Z,5.62
2018-12-08T12:28:45.513Z,5.20
2018-12-08T12:31:13.034Z,5.50
2018-12-08T12:33:40.503Z,5.28
2018-12-08T12:36:07.943Z,6.00
2018-12-08T12:38:35.394Z,5.40
2018-12-08T12:41:02.832Z,6.30
2018-12-08T12:43:30.266Z,5.55
2018-12-08T12:45:57.709Z,5.03
2018-12-08T12:48:25.155Z,6.92
2018-12-08T12:50:52.607Z,5.80
2018-12-08T12:53:21.963Z,5.90
2018-12-08T12:55:49.397Z,5.70
2018-12-08T12:58:16.846Z,6.30
2018-12-08T13:00:44.283Z,5.90
2018-12-08T13:03:11.730Z,7.20
2018-12-08T13:05:39.239Z,5.80
2018-12-08T13:08:06.707Z,6.40
2018-12-08T13:10:34.150Z,7.25
2018-12-08T13:13:01.590Z,7.08
2018-12-08T13:15:29.021Z,7.13
2018-12-08T13:17:56.460Z,6.90
2018-12-08T13:20:23.899Z,8.00
2018-12-08T13:22:51.404Z,6.58
2018-12-08T13:25:21.399Z,6.10
2018-12-08T13:27:48.855Z,6.30
2018-12-08T13:30:16.302Z,5.10
2018-12-08T13:32:43.767Z,5.72
2018-12-08T13:35:18.831Z,4.83
2018-12-08T13:37:46.362Z,3.87
2018-12-08T13:40:13.787Z,4.45
2018-12-08T13:42:41.218Z,4.03
2018-12-08T13:45:15.235Z,4.40
2018-12-08T13:47:43.387Z,4.53
2018-12-08T13:50:10.843Z,3.90
2018-12-08T13:52:38.310Z,4.58
2018-12-08T13:55:05.764Z,4.72
2018-12-08T13:57:33.190Z,4.40
2018-12-08T14:00:00.623Z,4.20
2018-12-08T14:02:28.055Z,3.87
2018-12-08T14:04:55.503Z,4.30
2018-12-08T14:07:22.955Z,4.50
2018-12-08T14:09:50.397Z,4.40
2018-12-08T14:12:17.851Z,4.10
2018-12-08T14:14:45.282Z,3.90
2018-12-08T14:17:12.745Z,3.87
2018-12-08T14:19:40.173Z,3.30
2018-12-08T14:22:07.614Z,3.40
2018-12-08T14:24:35.055Z,3.50
2018-12-08T14:27:02.490Z,3.50
2018-12-08T14:29:29.938Z,3.30
2018-12-08T14:31:57.778Z,3.80
2018-12-08T14:34:25.242Z,3.45
2018-12-08T14:36:52.686Z,3.20
2018-12-08T14:39:20.118Z,2.97
2018-12-08T14:41:47.558Z,2.90
2018-12-08T14:44:14.997Z,3.27
2018-12-08T14:46:42.446Z,2.67
2018-12-08T14:49:09.919Z,2.67
2018-12-08T14:51:37.360Z,2.70
2018-12-08T14:54:04.800Z,3.13
2018-12-08T14:56:32.230Z,2.92
2018-12-08T14:58:59.671Z,3.10
2018-12-08T15:01:27.114Z,3.10
2018-12-08T15:03:54.573Z,2.72
2018-12-08T15:06:22.003Z,2.92
2018-12-08T15:08:49.422Z,2.75
2018-12-08T15:11:16.862Z,2.90
2018-12-08T15:13:44.297Z,3.12
2018-12-08T15:16:11.742Z,3.08
2018-12-08T15:18:39.193Z,3.67
2018-12-08T15:21:06.640Z,3.30
2018-12-08T15:23:34.098Z,3.60
2018-12-08T15:26:01.518Z,3.70
2018-12-08T15:28:29.143Z,3.45
2018-12-08T15:30:56.567Z,3.52
2018-12-08T15:33:24.027Z,3.20
2018-12-08T15:35:51.467Z,3.37
2018-12-08T15:38:19.038Z,2.98
2018-12-08T15:40:46.475Z,3.77
2018-12-08T15:43:13.905Z,3.60
2018-12-08T15:45:41.349Z,3.20
2018-12-08T15:48:08.778Z,2.90
2018-12-08T15:50:36.215Z,3.05
2018-12-08T15:53:03.643Z,2.83
2018-12-08T15:55:31.075Z,2.90
2018-12-08T15:57:58.526Z,4.80
2018-12-08T16:00:25.975Z,3.00
2018-12-08T16:02:53.390Z,2.67
2018-12-08T16:05:20.830Z,2.35
2018-12-08T16:07:48.268Z,3.30
2018-12-08T16:10:15.710Z,2.95
2018-12-08T16:12:43.228Z,3.50
2018-12-08T16:15:10.670Z,3.22
2018-12-08T16:17:38.114Z,3.12
2018-12-08T16:20:08.454Z,3.12
2018-12-08T16:22:35.895Z,2.47
2018-12-08T16:25:04.098Z,2.83
2018-12-08T16:27:31.590Z,3.02
2018-12-08T16:29:59.037Z,3.22
2018-12-08T16:32:26.484Z,3.25
2018-12-08T16:34:53.934Z,3.20
2018-12-08T16:37:21.359Z,3.20
2018-12-08T16:39:48.793Z,3.20
2018-12-08T16:42:16.252Z,3.50
2018-12-08T16:44:43.707Z,3.80
2018-12-08T16:47:11.146Z,3.15
2018-12-08T16:49:38.599Z,3.37
2018-12-08T16:52:06.036Z,3.42
2018-12-08T16:54:33.565Z,3.60
2018-12-08T16:57:01.051Z,3.20
2018-12-08T16:59:28.485Z,3.60
2018-12-08T17:01:55.922Z,3.40
2018-12-08T17:04:23.351Z,3.70
2018-12-08T17:06:50.777Z,3.85
2018-12-08T17:09:18.232Z,4.40
2018-12-08T17:11:45.699Z,4.30
2018-12-08T17:14:13.156Z,3.83
2018-12-08T17:16:40.571Z,4.30
2018-12-08T17:19:07.999Z,4.00
2018-12-08T17:21:35.459Z,3.92
2018-12-08T17:24:02.922Z,3.70
2018-12-08T17:26:30.348Z,4.07
2018-12-08T17:28:58.690Z,3.50
2018-12-08T17:31:29.319Z,4.12
2018-12-08T17:33:57.832Z,4.50
2018-12-08T17:36:26.084Z,3.75
2018-12-08T17:38:54.747Z,3.12
2018-12-08T17:41:22.389Z,4.28
2018-12-08T17:43:49.844Z,3.47
2018-12-08T17:46:17.286Z,4.00
2018-12-08T17:48:44.739Z,4.35
2018-12-08T17:51:12.192Z,3.60
2018-12-08T17:53:39.638Z,4.33
2018-12-08T17:56:08.316Z,3.67
2018-12-08T17:58:35.950Z,4.20
2018-12-08T18:01:03.383Z,4.60
2018-12-08T18:03:30.824Z,3.50
2018-12-08T18:05:58.263Z,3.80
2018-12-08T18:08:25.731Z,4.35
2018-12-08T18:10:53.162Z,3.95
2018-12-08T18:13:20.627Z,4.08
2018-12-08T18:15:48.063Z,4.03
2018-12-08T18:18:15.519Z,4.45
2018-12-08T18:20:42.971Z,4.17
2018-12-08T18:23:10.494Z,3.87
2018-12-08T18:25:37.950Z,3.92
2018-12-08T18:28:05.420Z,3.95
2018-12-08T18:30:32.877Z,3.30
2018-12-08T18:33:00.315Z,4.50
2018-12-08T18:35:27.768Z,4.47
2018-12-08T18:37:55.175Z,5.55
2018-12-08T18:40:22.637Z,5.70
2018-12-08T18:42:50.124Z,5.00
2018-12-08T18:45:17.546Z,5.00
2018-12-08T18:47:44.983Z,4.67
2018-12-08T18:50:12.529Z,4.83
2018-12-08T18:52:39.974Z,3.83
2018-12-08T18:55:07.431Z,4.50
2018-12-08T18:57:34.891Z,5.22
2018-12-08T19:00:02.355Z,4.60
2018-12-08T19:02:29.793Z,5.15
2018-12-08T19:04:57.251Z,5.65
2018-12-08T19:07:24.687Z,5.60
2018-12-08T19:09:52.147Z,5.33
2018-12-08T19:12:19.595Z,5.03
2018-12-08T19:14:47.058Z,5.72
2018-12-08T19:17:14.490Z,5.70
2018-12-08T19:19:41.938Z,5.28
2018-12-08T19:22:09.379Z,8.48
2018-12-08T19:24:36.810Z,6.20
2018-12-08T19:27:04.759Z,6.40
2018-12-08T19:29:32.193Z,6.70
2018-12-08T19:31:59.643Z,6.00
2018-12-08T19:34:27.100Z,5.00
2018-12-08T19:36:54.559Z,4.50
2018-12-08T19:39:21.995Z,3.75
2018-12-08T19:41:49.434Z,5.15
2018-12-08T19:44:16.873Z,5.50
2018-12-08T19:46:44.318Z,4.60
2018-12-08T19:49:11.755Z,4.17
2018-12-08T19:51:39.198Z,5.00
2018-12-08T19:54:06.638Z,4.10
2018-12-08T19:56:34.078Z,4.25
2018-12-08T19:59:01.502Z,4.28
2018-12-08T20:01:28.960Z,3.95
2018-12-08T20:03:56.389Z,3.90
2018-12-08T20:06:23.847Z,5.45
2018-12-08T20:08:51.279Z,4.12
2018-12-08T20:11:18.713Z,4.30
2018-12-08T20:13:46.171Z,4.42
2018-12-08T20:16:13.611Z,4.70
2018-12-08T20:18:41.034Z,4.60
2018-12-08T20:21:08.470Z,4.33
2018-12-08T20:23:35.967Z,4.50
2018-12-08T20:26:04.346Z,5.12
2018-12-08T20:28:31.789Z,5.05
2018-12-08T20:30:59.239Z,5.00
2018-12-08T20:33:26.675Z,4.70
2018-12-08T20:35:54.102Z,6.12
2018-12-08T20:38:21.543Z,5.20
2018-12-08T20:40:48.986Z,5.75
2018-12-08T20:43:16.438Z,5.60
2018-12-08T20:45:43.901Z,5.53
2018-12-08T20:48:11.350Z,5.65
2018-12-08T20:50:38.787Z,5.92
2018-12-08T20:53:06.251Z,5.90
2018-12-08T20:55:33.709Z,6.00
2018-12-08T20:58:01.150Z,8.98
2018-12-08T21:00:28.581Z,5.92
2018-12-08T21:02:56.024Z,5.70
2018-12-08T21:05:23.574Z,5.90
2018-12-08T21:07:50.999Z,6.28
2018-12-08T21:10:18.450Z,6.90
2018-12-08T21:12:45.910Z,6.50
2018-12-08T21:15:13.359Z,6.50
2018-12-08T21:17:40.797Z,6.10
2018-12-08T21:20:08.237Z,6.78
2018-12-08T21:22:35.687Z,6.45
2018-12-08T21:25:03.135Z,7.40
2018-12-08T21:27:30.567Z,6.97
2018-12-08T21:29:58.015Z,6.50
2018-12-08T21:32:25.461Z,6.30
2018-12-08T21:34:52.930Z,8.70
2018-12-08T21:37:21.977Z,8.20
2018-12-08T21:39:49.624Z,6.40
2018-12-08T21:42:17.070Z,6.37
2018-12-08T21:44:44.522Z,7.03
2018-12-08T21:47:11.975Z,6.58
2018-12-08T21:49:39.426Z,5.20
2018-12-08T21:52:06.860Z,4.70
2018-12-08T21:54:34.318Z,4.65
2018-12-08T21:57:01.752Z,4.90
2018-12-08T21:59:29.203Z,5.20
2018-12-08T22:01:56.655Z,7.65
2018-12-08T22:04:24.285Z,10.13
2018-12-08T22:06:51.722Z,10.90
2018-12-08T22:09:19.167Z,12.50
2018-12-08T22:11:46.598Z,8.35
2018-12-08T22:14:14.064Z,11.93
2018-12-08T22:16:41.634Z,8.80
2018-12-08T22:19:09.070Z,7.75
2018-12-08T22:21:36.608Z,7.40
2018-12-08T22:24:04.170Z,11.07
2018-12-08T22:26:31.637Z,12.90
2018-12-08T22:28:59.079Z,12.00
2018-12-08T22:31:26.565Z,10.03
2018-12-08T22:33:54.007Z,13.10
2018-12-08T22:36:21.462Z,12.30
2018-12-08T22:38:48.896Z,19.92
2018-12-08T22:41:16.328Z,14.73
2018-12-08T22:43:43.767Z,14.15
2018-12-08T22:46:11.223Z,11.97
2018-12-08T22:48:38.662Z,12.13
2018-12-08T22:51:06.123Z,12.73
2018-12-08T22:53:33.551Z,13.32
2018-12-08T22:56:01.035Z,12.23
2018-12-08T22:58:28.467Z,12.90
2018-12-08T23:00:55.919Z,12.30
2018-12-08T23:03:23.361Z,12.90
2018-12-08T23:05:50.810Z,15.80
2018-12-08T23:08:18.242Z,16.52
2018-12-08T23:10:45.683Z,17.02
2018-12-08T23:13:13.131Z,15.13
2018-12-08T23:15:40.568Z,15.78
2018-12-08T23:18:08.009Z,14.90
2018-12-08T23:20:35.455Z,15.03
2018-12-08T23:23:02.915Z,12.15
2018-12-08T23:25:30.458Z,12.82
2018-12-08T23:27:57.911Z,12.55
2018-12-08T23:30:25.360Z,15.87
2018-12-08T23:32:52.819Z,11.65
2018-12-08T23:35:20.262Z,11.10
2018-12-08T23:37:47.726Z,10.78
2018-12-08T23:40:15.190Z,10.10
2018-12-08T23:42:42.849Z,11.45
2018-12-08T23:45:10.402Z,10.13
2018-12-08T23:47:37.851Z,10.50
2018-12-08T23:50:06.093Z,11.15
2018-12-08T23:52:33.535Z,10.70
2018-12-08T23:55:01.000Z,12.50
2018-12-08T23:57:28.442Z,10.47
2018-12-08T23:59:55.867Z,11.10
